Time;durP1;ratioP1;P1;durP2;ratioP2;P2;SDS_P1;SDS_P2;PMS_P1;PMS_P2;Temp;Humidity;BMP_temperature;BMP_pressure;BME280_temperature;BME280_humidity;BME280_pressure;Samples;Min_cycle;Max_cycle;Signal;HPM_P1;HPM_P2
2023/03/25 00:01:55;;;;;;;0.10;0.10;;;;;;;;;;5089997;28;20201;-61
2023/03/25 00:04:26;;;;;;;1.37;0.00;;;;;;;;;;5088370;28;20602;-61
2023/03/25 00:06:54;;;;;;;0.10;0.10;;;;;;;;;;5087541;28;20225;-61
2023/03/25 00:09:21;;;;;;;0.10;0.10;;;;;;;;;;5101364;28;20359;-60
2023/03/25 00:11:50;;;;;;;0.30;0.20;;;;;;;;;;5104279;28;20291;-61
2023/03/25 00:14:18;;;;;;;0.00;0.00;;;;;;;;;;5088518;28;20228;-61
2023/03/25 00:16:47;;;;;;;0.00;0.00;;;;;;;;;;5088676;28;20210;-61
2023/03/25 00:19:15;;;;;;;0.00;0.00;;;;;;;;;;5082251;28;20258;-61
2023/03/25 00:21:43;;;;;;;0.10;0.10;;;;;;;;;;5087630;28;20230;-61
2023/03/25 00:24:11;;;;;;;1.13;0.20;;;;;;;;;;5094039;28;20297;-61
2023/03/25 00:26:41;;;;;;;0.13;0.10;;;;;;;;;;5087019;28;20493;-61
2023/03/25 00:29:08;;;;;;;1.43;0.10;;;;;;;;;;5106960;28;20636;-60
2023/03/25 00:31:35;;;;;;;0.00;0.00;;;;;;;;;;5106485;28;20794;-60
2023/03/25 00:34:02;;;;;;;0.00;0.00;;;;;;;;;;5105125;28;20198;-61
2023/03/25 00:36:31;;;;;;;0.10;0.10;;;;;;;;;;5091354;28;20720;-60
2023/03/25 00:38:58;;;;;;;0.00;0.00;;;;;;;;;;5067799;28;20359;-61
2023/03/25 00:41:26;;;;;;;0.00;0.00;;;;;;;;;;5093464;28;20202;-61
2023/03/25 00:43:54;;;;;;;0.10;0.10;;;;;;;;;;5098447;28;20206;-61
2023/03/25 00:46:21;;;;;;;0.13;0.13;;;;;;;;;;5092562;28;20243;-62
2023/03/25 00:48:49;;;;;;;0.20;0.20;;;;;;;;;;5098622;28;20664;-61
2023/03/25 00:51:18;;;;;;;1.50;0.20;;;;;;;;;;5095219;28;20233;-61
2023/03/25 00:53:46;;;;;;;0.63;0.10;;;;;;;;;;5087031;28;20620;-60
2023/03/25 00:56:14;;;;;;;2.20;0.10;;;;;;;;;;5098044;28;20296;-61
2023/03/25 00:58:41;;;;;;;0.07;0.07;;;;;;;;;;5092912;28;20213;-61
2023/03/25 01:01:09;;;;;;;0.97;0.20;;;;;;;;;;5087000;28;20210;-60
2023/03/25 01:03:36;;;;;;;0.00;0.00;;;;;;;;;;5105856;28;20201;-59
2023/03/25 01:06:04;;;;;;;0.60;0.20;;;;;;;;;;5101712;28;20590;-60
2023/03/25 01:08:31;;;;;;;0.17;0.17;;;;;;;;;;5091368;28;20209;-60
2023/03/25 01:11:00;;;;;;;0.00;0.00;;;;;;;;;;5104438;28;20250;-60
2023/03/25 01:13:27;;;;;;;0.10;0.10;;;;;;;;;;5101258;28;20209;-60
2023/03/25 01:15:54;;;;;;;0.20;0.20;;;;;;;;;;5087051;28;20201;-60
2023/03/25 01:18:21;;;;;;;0.23;0.23;;;;;;;;;;5081102;28;20225;-60
2023/03/25 01:20:48;;;;;;;3.20;0.20;;;;;;;;;;5089513;28;20226;-61
2023/03/25 01:23:15;;;;;;;0.20;0.20;;;;;;;;;;5091265;28;20244;-60
2023/03/25 01:25:43;;;;;;;0.10;0.10;;;;;;;;;;5096680;28;20203;-61
2023/03/25 01:28:12;;;;;;;1.33;0.33;;;;;;;;;;5095643;28;20225;-61
2023/03/25 01:30:39;;;;;;;1.07;0.50;;;;;;;;;;5090587;28;20198;-61
2023/03/25 01:33:06;;;;;;;0.40;0.30;;;;;;;;;;5110715;28;21025;-61
2023/03/25 01:35:33;;;;;;;0.47;0.30;;;;;;;;;;5103521;28;20232;-61
2023/03/25 01:38:00;;;;;;;1.00;0.57;;;;;;;;;;5102022;28;20217;-61
2023/03/25 01:40:27;;;;;;;1.10;0.57;;;;;;;;;;5107362;28;20230;-61
2023/03/25 01:42:54;;;;;;;1.50;0.30;;;;;;;;;;5109175;28;20210;-60
2023/03/25 01:45:24;;;;;;;0.40;0.40;;;;;;;;;;5100510;28;20213;-61
2023/03/25 01:47:57;;;;;;;3.40;0.40;;;;;;;;;;5096086;28;20201;-61
2023/03/25 01:50:27;;;;;;;2.00;0.20;;;;;;;;;;5095186;28;20913;-61
2023/03/25 01:52:55;;;;;;;0.47;0.47;;;;;;;;;;5099705;28;20227;-61
2023/03/25 01:55:23;;;;;;;0.50;0.20;;;;;;;;;;5099547;28;20201;-61
2023/03/25 01:57:53;;;;;;;1.37;0.60;;;;;;;;;;5098399;28;20291;-61
2023/03/25 02:00:21;;;;;;;3.13;0.27;;;;;;;;;;5087379;28;20238;-61
2023/03/25 02:02:51;;;;;;;0.87;0.57;;;;;;;;;;5094230;28;20256;-61
2023/03/25 02:05:20;;;;;;;2.33;0.40;;;;;;;;;;5094510;28;20773;-61
2023/03/25 02:07:49;;;;;;;0.30;0.20;;;;;;;;;;5100495;28;20206;-61
2023/03/25 02:10:17;;;;;;;0.30;0.30;;;;;;;;;;5090863;28;20202;-60
2023/03/25 02:12:45;;;;;;;2.03;0.37;;;;;;;;;;5104959;28;20206;-60
2023/03/25 02:15:13;;;;;;;0.27;0.27;;;;;;;;;;5104946;28;20198;-60
2023/03/25 02:17:48;;;;;;;0.43;0.43;;;;;;;;;;5090580;28;20214;-60
2023/03/25 02:20:31;;;;;;;0.57;0.23;;;;;;;;;;5103972;28;20225;-61
2023/03/25 02:23:20;;;;;;;0.23;0.23;;;;;;;;;;5093043;28;20245;-60
2023/03/25 02:26:06;;;;;;;0.13;0.10;;;;;;;;;;5095935;28;20541;-60
2023/03/25 02:28:36;;;;;;;0.17;0.17;;;;;;;;;;5107845;28;20214;-60
2023/03/25 02:31:24;;;;;;;0.20;0.20;;;;;;;;;;5091095;28;20222;-60
2023/03/25 02:34:06;;;;;;;0.90;0.40;;;;;;;;;;5108369;28;20218;-60
2023/03/25 02:36:47;;;;;;;2.73;0.50;;;;;;;;;;5084462;28;20209;-60
2023/03/25 02:39:17;;;;;;;0.63;0.40;;;;;;;;;;5096679;28;20206;-60
2023/03/25 02:41:48;;;;;;;0.20;0.20;;;;;;;;;;5076186;28;20201;-60
2023/03/25 02:44:17;;;;;;;0.40;0.40;;;;;;;;;;5107873;28;20209;-61
2023/03/25 02:46:47;;;;;;;0.80;0.30;;;;;;;;;;5101826;28;20205;-60
2023/03/25 02:49:15;;;;;;;1.70;0.60;;;;;;;;;;5108751;28;20231;-60
2023/03/25 02:51:45;;;;;;;0.20;0.20;;;;;;;;;;5089976;28;20263;-60
2023/03/25 02:54:14;;;;;;;0.20;0.20;;;;;;;;;;5089972;28;20210;-60
2023/03/25 02:56:44;;;;;;;0.13;0.13;;;;;;;;;;5092686;27;20213;-60
2023/03/25 02:59:13;;;;;;;0.73;0.40;;;;;;;;;;5088943;28;20214;-60
2023/03/25 03:01:40;;;;;;;0.90;0.30;;;;;;;;;;5105729;28;20324;-60
2023/03/25 03:04:08;;;;;;;1.03;0.43;;;;;;;;;;5108615;28;20205;-61
2023/03/25 03:07:09;;;;;;;0.23;0.23;;;;;;;;;;5091518;28;20202;-60
2023/03/25 03:09:40;;;;;;;0.70;0.20;;;;;;;;;;5080607;28;20621;-61
2023/03/25 03:12:24;;;;;;;0.80;0.53;;;;;;;;;;5088460;28;20285;-60
2023/03/25 03:15:00;;;;;;;0.63;0.40;;;;;;;;;;5082493;28;20217;-60
2023/03/25 03:17:30;;;;;;;0.43;0.43;;;;;;;;;;5087826;28;20286;-60
2023/03/25 03:20:00;;;;;;;0.30;0.30;;;;;;;;;;5087467;28;20638;-60
2023/03/25 03:22:34;;;;;;;0.20;0.20;;;;;;;;;;5088826;28;20468;-61
2023/03/25 03:25:02;;;;;;;0.20;0.20;;;;;;;;;;5086263;28;20675;-61
2023/03/25 03:27:32;;;;;;;0.30;0.30;;;;;;;;;;5087076;28;20205;-60
2023/03/25 03:30:05;;;;;;;0.20;0.20;;;;;;;;;;5084875;28;20313;-60
2023/03/25 03:32:38;;;;;;;0.30;0.30;;;;;;;;;;5085488;28;20198;-61
2023/03/25 03:35:08;;;;;;;0.20;0.20;;;;;;;;;;5087074;28;20225;-60
2023/03/25 03:37:37;;;;;;;1.60;0.20;;;;;;;;;;5088422;28;20210;-60
2023/03/25 03:40:04;;;;;;;2.53;0.20;;;;;;;;;;5087961;28;20226;-61
2023/03/25 03:42:34;;;;;;;0.20;0.20;;;;;;;;;;5085218;28;20855;-60
2023/03/25 03:45:04;;;;;;;0.10;0.10;;;;;;;;;;5089718;28;20241;-60
2023/03/25 03:47:33;;;;;;;0.20;0.20;;;;;;;;;;5090133;28;20198;-60
2023/03/25 03:50:02;;;;;;;0.10;0.10;;;;;;;;;;5087715;28;20588;-60
2023/03/25 03:52:37;;;;;;;0.10;0.10;;;;;;;;;;5082599;28;20210;-61
2023/03/25 03:55:09;;;;;;;0.40;0.13;;;;;;;;;;5089199;28;20202;-61
2023/03/25 03:57:39;;;;;;;1.53;0.20;;;;;;;;;;5087948;28;20203;-60
2023/03/25 04:00:13;;;;;;;0.10;0.10;;;;;;;;;;5088024;28;20233;-61
2023/03/25 04:02:42;;;;;;;0.20;0.20;;;;;;;;;;5087218;28;20206;-60
2023/03/25 04:05:10;;;;;;;0.10;0.10;;;;;;;;;;5086621;28;20202;-60
2023/03/25 04:07:40;;;;;;;0.83;0.20;;;;;;;;;;5086445;28;20206;-60
2023/03/25 04:10:13;;;;;;;0.10;0.10;;;;;;;;;;5088499;28;20203;-60
2023/03/25 04:12:42;;;;;;;0.10;0.10;;;;;;;;;;5089868;28;20230;-60
2023/03/25 04:15:11;;;;;;;0.10;0.10;;;;;;;;;;5086453;28;20707;-60
2023/03/25 04:17:38;;;;;;;0.20;0.20;;;;;;;;;;5087875;28;20206;-60
2023/03/25 04:20:07;;;;;;;0.30;0.20;;;;;;;;;;5084364;28;20936;-60
2023/03/25 04:22:37;;;;;;;2.13;0.20;;;;;;;;;;5085747;28;20234;-61
2023/03/25 04:25:04;;;;;;;0.20;0.20;;;;;;;;;;5085659;28;20210;-61
2023/03/25 04:27:31;;;;;;;0.10;0.10;;;;;;;;;;5087877;28;20221;-61
2023/03/25 04:30:00;;;;;;;0.47;0.10;;;;;;;;;;5084311;28;20247;-60
2023/03/25 04:32:30;;;;;;;0.10;0.10;;;;;;;;;;5084870;28;20198;-61
2023/03/25 04:34:57;;;;;;;1.03;0.30;;;;;;;;;;5088166;28;20202;-60
2023/03/25 04:37:24;;;;;;;0.20;0.20;;;;;;;;;;5084399;28;20297;-60
2023/03/25 04:39:52;;;;;;;0.10;0.10;;;;;;;;;;5091827;28;20292;-61
2023/03/25 04:42:19;;;;;;;0.10;0.10;;;;;;;;;;5067330;28;20207;-61
2023/03/25 04:44:46;;;;;;;0.10;0.10;;;;;;;;;;5079667;28;20198;-60
2023/03/25 04:47:15;;;;;;;0.27;0.23;;;;;;;;;;5087014;28;20283;-61
2023/03/25 04:49:43;;;;;;;1.10;0.20;;;;;;;;;;5091996;28;20282;-60
2023/03/25 04:52:11;;;;;;;0.43;0.30;;;;;;;;;;5091204;28;20245;-60
2023/03/25 04:54:38;;;;;;;0.50;0.50;;;;;;;;;;5090944;28;20202;-61
2023/03/25 04:57:07;;;;;;;0.40;0.30;;;;;;;;;;5104292;28;20202;-60
2023/03/25 04:59:34;;;;;;;0.30;0.30;;;;;;;;;;5104704;28;20672;-61
2023/03/25 05:02:04;;;;;;;1.80;0.30;;;;;;;;;;5100474;28;20295;-61
2023/03/25 05:04:32;;;;;;;0.63;0.40;;;;;;;;;;5109379;28;20624;-61
2023/03/25 05:07:01;;;;;;;1.80;0.30;;;;;;;;;;5099262;28;20221;-61
2023/03/25 05:09:29;;;;;;;1.60;0.30;;;;;;;;;;5094328;28;20740;-60
2023/03/25 05:11:56;;;;;;;0.30;0.30;;;;;;;;;;5110012;28;20202;-61
2023/03/25 05:14:23;;;;;;;0.93;0.30;;;;;;;;;;5112129;28;20205;-60
2023/03/25 05:16:50;;;;;;;3.07;0.50;;;;;;;;;;5100440;28;20259;-60
2023/03/25 05:19:19;;;;;;;0.20;0.20;;;;;;;;;;5096993;28;20217;-60
2023/03/25 05:21:47;;;;;;;0.30;0.30;;;;;;;;;;5096085;28;20259;-60
2023/03/25 05:24:15;;;;;;;0.30;0.30;;;;;;;;;;5113962;28;20209;-64
2023/03/25 05:26:43;;;;;;;6.07;0.30;;;;;;;;;;5105514;28;20205;-61
2023/03/25 05:29:12;;;;;;;1.70;0.47;;;;;;;;;;5093687;28;20202;-60
2023/03/25 05:31:40;;;;;;;2.93;1.00;;;;;;;;;;5106931;28;20206;-60
2023/03/25 05:34:07;;;;;;;0.67;0.30;;;;;;;;;;5098197;28;20675;-61
2023/03/25 05:36:34;;;;;;;0.73;0.30;;;;;;;;;;5096847;28;20212;-61
2023/03/25 05:39:03;;;;;;;0.27;0.27;;;;;;;;;;5093580;28;20441;-60
2023/03/25 05:41:37;;;;;;;0.90;0.30;;;;;;;;;;5112384;28;20335;-60
2023/03/25 05:44:05;;;;;;;0.20;0.20;;;;;;;;;;5112079;28;20765;-60
2023/03/25 05:46:32;;;;;;;0.60;0.60;;;;;;;;;;5102934;28;20214;-60
2023/03/25 05:49:00;;;;;;;0.17;0.10;;;;;;;;;;5094660;28;20284;-60
2023/03/25 05:51:28;;;;;;;0.10;0.10;;;;;;;;;;5093577;28;20202;-60
2023/03/25 05:53:55;;;;;;;0.50;0.20;;;;;;;;;;5096429;28;20201;-60
2023/03/25 05:56:24;;;;;;;0.10;0.10;;;;;;;;;;5100568;28;20201;-64
2023/03/25 05:58:53;;;;;;;2.87;0.23;;;;;;;;;;5110401;28;20241;-59
2023/03/25 06:01:21;;;;;;;0.10;0.10;;;;;;;;;;5093380;28;20230;-59
2023/03/25 06:03:48;;;;;;;0.20;0.20;;;;;;;;;;5097542;28;20243;-59
2023/03/25 06:06:18;;;;;;;0.60;0.10;;;;;;;;;;5085471;28;20209;-59
2023/03/25 06:08:45;;;;;;;0.17;0.17;;;;;;;;;;5090397;28;20663;-59
2023/03/25 06:11:13;;;;;;;3.60;0.30;;;;;;;;;;5106895;28;20205;-59
2023/03/25 06:13:40;;;;;;;0.20;0.20;;;;;;;;;;5094788;27;20209;-61
2023/03/25 06:16:09;;;;;;;0.10;0.10;;;;;;;;;;5092872;28;20217;-62
2023/03/25 06:18:36;;;;;;;0.40;0.23;;;;;;;;;;5110386;28;20668;-58
2023/03/25 06:21:04;;;;;;;0.10;0.10;;;;;;;;;;5110837;28;20244;-61
2023/03/25 06:23:34;;;;;;;0.20;0.20;;;;;;;;;;5110251;28;20253;-59
2023/03/25 06:26:03;;;;;;;0.30;0.30;;;;;;;;;;5103026;28;20317;-59
2023/03/25 06:28:32;;;;;;;1.10;0.10;;;;;;;;;;5095897;28;20353;-60
2023/03/25 06:31:06;;;;;;;2.03;0.30;;;;;;;;;;5110466;28;20255;-59
2023/03/25 06:33:35;;;;;;;1.20;0.40;;;;;;;;;;5110607;28;20631;-59
2023/03/25 06:36:02;;;;;;;0.20;0.20;;;;;;;;;;5096291;28;20206;-61
2023/03/25 06:38:29;;;;;;;1.03;0.40;;;;;;;;;;5084651;28;20207;-61
2023/03/25 06:40:56;;;;;;;1.40;0.40;;;;;;;;;;5082534;28;20229;-60
2023/03/25 06:43:23;;;;;;;0.63;0.30;;;;;;;;;;5089773;28;20287;-61
2023/03/25 06:45:51;;;;;;;0.30;0.30;;;;;;;;;;5097825;28;20206;-61
2023/03/25 06:48:18;;;;;;;0.30;0.20;;;;;;;;;;5101070;28;20285;-61
2023/03/25 06:50:46;;;;;;;3.50;0.60;;;;;;;;;;5109859;28;20555;-61
2023/03/25 06:53:14;;;;;;;3.80;0.53;;;;;;;;;;5097300;28;20209;-61
2023/03/25 06:55:43;;;;;;;1.10;0.67;;;;;;;;;;5098817;28;20573;-61
2023/03/25 06:58:10;;;;;;;1.23;0.30;;;;;;;;;;5082499;28;20210;-61
2023/03/25 07:00:37;;;;;;;0.33;0.33;;;;;;;;;;5089707;28;20207;-61
2023/03/25 07:03:04;;;;;;;1.03;0.40;;;;;;;;;;5093410;28;20205;-61
2023/03/25 07:05:32;;;;;;;0.90;0.57;;;;;;;;;;5102943;28;20202;-61
2023/03/25 07:08:00;;;;;;;0.50;0.50;;;;;;;;;;5076023;28;20222;-61
2023/03/25 07:10:27;;;;;;;1.10;0.53;;;;;;;;;;5079502;28;20212;-63
2023/03/25 07:12:54;;;;;;;3.20;0.60;;;;;;;;;;5109361;28;20214;-62
2023/03/25 07:15:21;;;;;;;5.87;0.60;;;;;;;;;;5094353;28;20241;-60
2023/03/25 07:17:48;;;;;;;0.50;0.37;;;;;;;;;;5109525;28;20853;-60
2023/03/25 07:20:15;;;;;;;0.30;0.30;;;;;;;;;;5109621;28;20213;-61
2023/03/25 07:22:42;;;;;;;2.00;0.40;;;;;;;;;;5100433;28;20234;-60
2023/03/25 07:25:11;;;;;;;2.30;0.30;;;;;;;;;;5087884;28;20213;-60
2023/03/25 07:27:38;;;;;;;1.50;0.70;;;;;;;;;;5088405;28;20228;-60
2023/03/25 07:30:06;;;;;;;1.87;0.20;;;;;;;;;;5091488;28;20291;-61
2023/03/25 07:32:33;;;;;;;0.67;0.40;;;;;;;;;;5100938;28;20201;-60
2023/03/25 07:35:00;;;;;;;2.07;0.60;;;;;;;;;;5080227;28;20687;-61
2023/03/25 07:37:27;;;;;;;0.63;0.50;;;;;;;;;;5103058;28;20202;-61
2023/03/25 07:39:55;;;;;;;0.50;0.50;;;;;;;;;;5087822;28;20199;-61
2023/03/25 07:42:23;;;;;;;0.73;0.50;;;;;;;;;;5092495;28;20684;-61
2023/03/25 07:44:50;;;;;;;0.63;0.27;;;;;;;;;;5097860;28;20248;-61
2023/03/25 07:47:17;;;;;;;1.03;0.47;;;;;;;;;;5091908;28;20199;-61
2023/03/25 07:49:46;;;;;;;1.07;0.67;;;;;;;;;;5089316;28;20206;-62
2023/03/25 07:52:13;;;;;;;0.60;0.60;;;;;;;;;;5089689;28;20207;-60
2023/03/25 07:54:40;;;;;;;2.73;0.40;;;;;;;;;;5099827;28;20210;-62
2023/03/25 07:57:07;;;;;;;1.43;0.40;;;;;;;;;;5098709;28;20201;-60
2023/03/25 07:59:36;;;;;;;0.50;0.50;;;;;;;;;;5097397;28;20207;-60
2023/03/25 08:02:03;;;;;;;2.00;0.53;;;;;;;;;;5087944;28;20594;-61
2023/03/25 08:04:30;;;;;;;2.37;0.50;;;;;;;;;;5087831;28;20202;-60
2023/03/25 08:06:58;;;;;;;1.73;0.50;;;;;;;;;;5097029;28;20208;-61
2023/03/25 08:09:26;;;;;;;0.37;0.33;;;;;;;;;;5108591;28;20213;-61
2023/03/25 08:11:53;;;;;;;1.67;0.80;;;;;;;;;;5093508;28;20198;-62
2023/03/25 08:14:20;;;;;;;0.70;0.50;;;;;;;;;;5093019;28;20197;-63
2023/03/25 08:16:48;;;;;;;2.30;0.43;;;;;;;;;;5096284;28;20209;-61
2023/03/25 08:19:15;;;;;;;1.53;0.60;;;;;;;;;;5105646;28;20206;-62
2023/03/25 08:21:42;;;;;;;3.90;1.07;;;;;;;;;;5087543;28;20234;-62
2023/03/25 08:24:10;;;;;;;2.63;0.70;;;;;;;;;;5088063;28;20206;-66
2023/03/25 08:26:37;;;;;;;2.83;0.80;;;;;;;;;;5086938;28;20222;-61
2023/03/25 08:29:06;;;;;;;1.43;0.53;;;;;;;;;;5087100;28;20206;-63
2023/03/25 08:31:37;;;;;;;3.07;0.70;;;;;;;;;;5085619;28;20233;-64
2023/03/25 08:34:06;;;;;;;1.30;0.73;;;;;;;;;;5095063;28;20229;-61
2023/03/25 08:36:33;;;;;;;3.27;0.90;;;;;;;;;;5089106;28;20217;-63
2023/03/25 08:39:00;;;;;;;3.27;1.00;;;;;;;;;;5090184;28;20214;-61
2023/03/25 08:41:27;;;;;;;1.70;0.60;;;;;;;;;;5087648;28;20280;-62
2023/03/25 08:43:54;;;;;;;2.43;0.60;;;;;;;;;;5083334;28;20209;-62
2023/03/25 08:46:21;;;;;;;2.07;0.87;;;;;;;;;;5093789;28;20672;-62
2023/03/25 08:48:49;;;;;;;1.10;0.87;;;;;;;;;;5097002;28;20206;-62
2023/03/25 08:51:17;;;;;;;1.80;1.23;;;;;;;;;;5088092;28;20210;-61
2023/03/25 08:53:44;;;;;;;0.70;0.43;;;;;;;;;;5087065;28;20217;-65
2023/03/25 08:56:12;;;;;;;1.70;0.50;;;;;;;;;;5087501;28;20202;-60
2023/03/25 08:58:39;;;;;;;2.80;0.60;;;;;;;;;;5096242;28;20264;-61
2023/03/25 09:01:07;;;;;;;3.03;1.13;;;;;;;;;;5066494;28;20297;-60
2023/03/25 09:03:36;;;;;;;2.77;0.60;;;;;;;;;;5087645;28;20221;-60
2023/03/25 09:06:04;;;;;;;3.07;0.80;;;;;;;;;;5093114;28;20229;-60
2023/03/25 09:08:38;;;;;;;3.23;0.60;;;;;;;;;;5094410;28;20338;-61
2023/03/25 09:11:06;;;;;;;2.00;0.53;;;;;;;;;;5107648;28;20213;-60
2023/03/25 09:13:33;;;;;;;1.03;0.60;;;;;;;;;;5105914;28;20288;-61
2023/03/25 09:16:00;;;;;;;2.87;0.73;;;;;;;;;;5107437;28;20694;-61
2023/03/25 09:18:27;;;;;;;6.07;0.53;;;;;;;;;;5090801;28;20214;-61
2023/03/25 09:20:58;;;;;;;5.30;0.40;;;;;;;;;;5107640;28;20394;-61
2023/03/25 09:23:25;;;;;;;2.73;0.60;;;;;;;;;;5107560;28;20658;-61
2023/03/25 09:25:54;;;;;;;3.30;0.60;;;;;;;;;;5107451;28;20205;-60
2023/03/25 09:28:21;;;;;;;4.20;0.70;;;;;;;;;;5087761;28;20206;-61
2023/03/25 09:30:48;;;;;;;0.40;0.40;;;;;;;;;;5087219;28;20201;-61
2023/03/25 09:33:15;;;;;;;2.57;0.80;;;;;;;;;;5085245;28;20207;-61
2023/03/25 09:35:42;;;;;;;3.67;0.40;;;;;;;;;;5086904;28;20264;-61
2023/03/25 09:38:09;;;;;;;1.60;0.50;;;;;;;;;;5101539;28;20205;-61
2023/03/25 09:40:38;;;;;;;1.57;0.50;;;;;;;;;;5107353;28;20572;-61
2023/03/25 09:43:20;;;;;;;0.60;0.43;;;;;;;;;;5095727;28;20222;-61
2023/03/25 09:45:48;;;;;;;0.40;0.40;;;;;;;;;;5086832;28;20211;-60
2023/03/25 09:48:23;;;;;;;1.03;0.47;;;;;;;;;;5103946;28;20209;-60
2023/03/25 09:50:50;;;;;;;1.27;0.70;;;;;;;;;;5111169;28;20208;-62
2023/03/25 09:53:23;;;;;;;0.60;0.60;;;;;;;;;;5109414;28;20194;-61
2023/03/25 09:55:51;;;;;;;2.70;0.80;;;;;;;;;;5110675;28;20210;-61
2023/03/25 09:58:25;;;;;;;1.23;0.20;;;;;;;;;;5097543;28;20206;-61
2023/03/25 10:00:56;;;;;;;0.20;0.20;;;;;;;;;;5094990;28;20208;-61
2023/03/25 10:03:27;;;;;;;0.77;0.43;;;;;;;;;;5090287;28;20353;-61
2023/03/25 10:06:05;;;;;;;0.67;0.30;;;;;;;;;;5089990;28;20279;-60
2023/03/25 10:08:38;;;;;;;0.30;0.30;;;;;;;;;;5093754;28;20210;-61
2023/03/25 10:11:06;;;;;;;0.20;0.20;;;;;;;;;;5089396;28;20203;-62
2023/03/25 10:13:40;;;;;;;0.67;0.20;;;;;;;;;;5090161;28;20213;-61
2023/03/25 10:16:14;;;;;;;1.00;0.20;;;;;;;;;;5088503;28;20234;-61
2023/03/25 10:18:48;;;;;;;0.20;0.20;;;;;;;;;;5097510;28;20206;-61
2023/03/25 10:21:17;;;;;;;0.20;0.20;;;;;;;;;;5092760;28;20771;-61
2023/03/25 10:23:48;;;;;;;0.27;0.27;;;;;;;;;;5092666;28;20234;-61
2023/03/25 10:26:18;;;;;;;0.10;0.10;;;;;;;;;;5110269;28;20216;-60
2023/03/25 10:28:49;;;;;;;2.73;0.40;;;;;;;;;;5110042;28;20215;-61
2023/03/25 10:31:17;;;;;;;0.87;0.10;;;;;;;;;;5103483;28;20211;-61
2023/03/25 10:33:50;;;;;;;4.70;1.97;;;;;;;;;;5089396;28;20217;-61
2023/03/25 10:36:20;;;;;;;26.77;7.20;;;;;;;;;;5089718;28;20628;-59
2023/03/25 10:38:48;;;;;;;26.13;8.40;;;;;;;;;;5089276;28;20649;-60
2023/03/25 10:41:20;;;;;;;17.77;6.67;;;;;;;;;;5090832;28;20210;-60
2023/03/25 10:43:49;;;;;;;2.30;1.50;;;;;;;;;;5090800;28;20237;-60
2023/03/25 10:46:19;;;;;;;7.10;1.53;;;;;;;;;;5099519;28;20374;-60
2023/03/25 10:48:47;;;;;;;7.90;1.17;;;;;;;;;;5109823;28;20308;-60
2023/03/25 10:51:16;;;;;;;0.60;0.40;;;;;;;;;;5108148;28;20702;-60
2023/03/25 10:53:46;;;;;;;1.80;0.80;;;;;;;;;;5089720;28;20194;-60
2023/03/25 10:56:15;;;;;;;1.30;0.43;;;;;;;;;;5089644;28;20218;-60
2023/03/25 10:58:44;;;;;;;0.50;0.30;;;;;;;;;;5088873;28;20206;-59
2023/03/25 11:01:14;;;;;;;1.07;0.33;;;;;;;;;;5089243;28;20560;-59
2023/03/25 11:03:41;;;;;;;0.57;0.10;;;;;;;;;;5080355;28;20287;-61
2023/03/25 11:06:14;;;;;;;0.35;0.20;;;;;;;;;;5109885;28;20250;-60
2023/03/25 11:08:56;;;;;;;0.22;0.22;;;;;;;;;;5092526;28;20218;-61
2023/03/25 11:11:31;;;;;;;1.30;0.33;;;;;;;;;;5090908;28;20839;-61
2023/03/25 11:13:58;;;;;;;2.42;0.30;;;;;;;;;;5109574;28;20570;-61
2023/03/25 11:16:27;;;;;;;0.75;0.30;;;;;;;;;;5105125;28;20202;-61
2023/03/25 11:18:54;;;;;;;0.45;0.25;;;;;;;;;;5089318;28;20676;-61
2023/03/25 11:21:21;;;;;;;0.13;0.13;;;;;;;;;;5091942;28;20222;-60
2023/03/25 11:23:49;;;;;;;0.30;0.30;;;;;;;;;;5109258;28;20332;-60
2023/03/25 11:26:20;;;;;;;0.10;0.10;;;;;;;;;;5109324;28;20233;-62
2023/03/25 11:28:48;;;;;;;0.20;0.20;;;;;;;;;;5091465;28;20237;-60
2023/03/25 11:31:16;;;;;;;0.50;0.40;;;;;;;;;;5088772;28;20255;-61
2023/03/25 11:33:45;;;;;;;0.30;0.25;;;;;;;;;;5090452;28;20203;-60
2023/03/25 11:36:31;;;;;;;2.88;0.43;;;;;;;;;;5087462;28;20210;-60
2023/03/25 11:39:00;;;;;;;0.20;0.20;;;;;;;;;;5087506;28;20291;-60
2023/03/25 11:41:31;;;;;;;1.05;0.28;;;;;;;;;;5088643;28;20206;-63
2023/03/25 11:44:03;;;;;;;0.90;0.20;;;;;;;;;;5106687;28;20226;-60
2023/03/25 11:46:30;;;;;;;3.03;0.28;;;;;;;;;;5107918;28;20237;-59
2023/03/25 11:49:08;;;;;;;0.82;0.43;;;;;;;;;;5087651;28;20210;-60
2023/03/25 11:51:35;;;;;;;0.88;0.20;;;;;;;;;;5094843;28;20573;-60
2023/03/25 11:54:03;;;;;;;0.32;0.20;;;;;;;;;;5074114;28;20211;-60
2023/03/25 11:56:33;;;;;;;0.22;0.13;;;;;;;;;;5067602;28;20216;-61
2023/03/25 11:59:01;;;;;;;0.82;0.35;;;;;;;;;;5077561;28;20636;-60
2023/03/25 12:01:30;;;;;;;2.63;0.30;;;;;;;;;;5083805;28;20257;-60
2023/03/25 12:04:12;;;;;;;0.35;0.20;;;;;;;;;;5087389;28;20253;-59
2023/03/25 12:06:52;;;;;;;2.20;0.38;;;;;;;;;;5088597;28;20206;-61
2023/03/25 12:09:19;;;;;;;0.93;0.10;;;;;;;;;;5077902;28;20585;-60
2023/03/25 12:11:50;;;;;;;0.28;0.20;;;;;;;;;;5087011;28;20293;-60
2023/03/25 12:14:24;;;;;;;0.22;0.22;;;;;;;;;;5097664;28;20687;-60
2023/03/25 12:16:57;;;;;;;0.20;0.20;;;;;;;;;;5105597;28;20296;-61
2023/03/25 12:19:31;;;;;;;0.35;0.20;;;;;;;;;;5093651;28;20684;-60
2023/03/25 12:22:06;;;;;;;0.68;0.30;;;;;;;;;;5087576;28;20244;-61
2023/03/25 12:24:43;;;;;;;0.20;0.20;;;;;;;;;;5101975;28;20224;-60
2023/03/25 12:27:14;;;;;;;0.85;0.40;;;;;;;;;;5106889;28;20208;-61
2023/03/25 12:29:45;;;;;;;0.20;0.20;;;;;;;;;;5075810;28;20547;-60
2023/03/25 12:32:17;;;;;;;1.15;0.40;;;;;;;;;;5087639;28;20232;-61
2023/03/25 12:34:52;;;;;;;0.20;0.20;;;;;;;;;;5096355;28;20204;-60
2023/03/25 12:37:23;;;;;;;1.00;0.30;;;;;;;;;;5090570;28;20672;-59
2023/03/25 12:39:57;;;;;;;0.65;0.32;;;;;;;;;;5087222;28;20210;-59
2023/03/25 12:42:32;;;;;;;0.15;0.15;;;;;;;;;;5087032;28;20214;-59
2023/03/25 12:45:14;;;;;;;1.35;0.30;;;;;;;;;;5097537;28;20205;-60
2023/03/25 12:47:42;;;;;;;0.30;0.30;;;;;;;;;;5091557;28;20213;-63
2023/03/25 12:50:23;;;;;;;0.30;0.30;;;;;;;;;;5090045;28;20209;-62
2023/03/25 12:52:59;;;;;;;0.30;0.20;;;;;;;;;;5104917;28;20202;-68
2023/03/25 12:55:40;;;;;;;1.27;0.30;;;;;;;;;;5092950;28;20197;-63
2023/03/25 12:58:18;;;;;;;1.85;0.20;;;;;;;;;;5087394;28;20206;-61
2023/03/25 13:00:50;;;;;;;0.20;0.20;;;;;;;;;;5095026;28;20582;-66
2023/03/25 13:03:44;;;;;;;0.22;0.22;;;;;;;;;;5104786;28;20252;-61
2023/03/25 13:06:18;;;;;;;2.28;0.20;;;;;;;;;;5049404;28;20214;-61
2023/03/25 13:08:47;;;;;;;0.45;0.30;;;;;;;;;;5086077;28;20527;-62
2023/03/25 13:11:18;;;;;;;0.50;0.30;;;;;;;;;;5086161;28;20309;-61
2023/03/25 13:13:47;;;;;;;0.30;0.30;;;;;;;;;;5089686;28;20916;-61
2023/03/25 13:16:16;;;;;;;0.20;0.20;;;;;;;;;;5104714;28;20640;-62
2023/03/25 13:18:46;;;;;;;1.17;0.30;;;;;;;;;;5106832;28;20224;-61
2023/03/25 13:21:19;;;;;;;0.70;0.20;;;;;;;;;;5090770;28;20623;-61
2023/03/25 13:23:48;;;;;;;0.35;0.28;;;;;;;;;;5089449;28;20241;-61
2023/03/25 13:26:18;;;;;;;3.47;0.40;;;;;;;;;;5109069;28;20244;-61
2023/03/25 13:28:47;;;;;;;0.20;0.20;;;;;;;;;;5107032;28;20213;-61
2023/03/25 13:31:15;;;;;;;0.28;0.22;;;;;;;;;;5093688;28;20212;-62
2023/03/25 13:33:45;;;;;;;0.30;0.30;;;;;;;;;;5088402;28;20202;-62
2023/03/25 13:36:18;;;;;;;0.30;0.25;;;;;;;;;;5104532;28;20209;-61
2023/03/25 13:38:49;;;;;;;1.63;0.30;;;;;;;;;;5110390;28;20214;-61
2023/03/25 13:41:17;;;;;;;0.98;0.30;;;;;;;;;;5096602;28;20689;-62
2023/03/25 13:43:49;;;;;;;0.65;0.25;;;;;;;;;;5090391;28;20241;-61
2023/03/25 13:46:19;;;;;;;1.00;0.30;;;;;;;;;;5095372;28;20207;-62
2023/03/25 13:48:49;;;;;;;1.00;0.20;;;;;;;;;;5090149;28;20297;-61
2023/03/25 13:51:18;;;;;;;0.30;0.30;;;;;;;;;;5103843;28;20603;-61
2023/03/25 13:53:47;;;;;;;2.13;0.30;;;;;;;;;;5110300;28;20217;-62
2023/03/25 13:56:32;;;;;;;1.52;0.15;;;;;;;;;;5097610;28;20214;-62
2023/03/25 13:59:07;;;;;;;0.77;0.20;;;;;;;;;;5089603;28;20214;-62
2023/03/25 14:01:44;;;;;;;0.22;0.22;;;;;;;;;;5089918;28;20210;-61
2023/03/25 14:04:21;;;;;;;0.63;0.32;;;;;;;;;;5089765;28;20234;-62
2023/03/25 14:06:58;;;;;;;2.33;0.25;;;;;;;;;;5105959;28;20738;-62
2023/03/25 14:09:40;;;;;;;1.55;0.40;;;;;;;;;;5107884;28;20958;-61
2023/03/25 14:12:09;;;;;;;2.00;0.35;;;;;;;;;;5109734;28;20251;-62
2023/03/25 14:14:39;;;;;;;0.63;0.43;;;;;;;;;;5102383;28;20198;-61
2023/03/25 14:17:07;;;;;;;0.75;0.22;;;;;;;;;;5090710;28;20623;-62
2023/03/25 14:19:36;;;;;;;1.13;0.30;;;;;;;;;;5092735;28;20293;-62
2023/03/25 14:22:08;;;;;;;1.00;0.30;;;;;;;;;;5084402;28;20330;-64
2023/03/25 14:24:36;;;;;;;0.75;0.20;;;;;;;;;;5106903;28;20233;-64
2023/03/25 14:27:05;;;;;;;0.70;0.28;;;;;;;;;;5103523;28;20975;-65
2023/03/25 14:29:37;;;;;;;1.35;0.50;;;;;;;;;;5089132;28;20210;-64
2023/03/25 14:32:06;;;;;;;0.52;0.30;;;;;;;;;;5090928;28;20544;-64
2023/03/25 14:34:33;;;;;;;0.17;0.17;;;;;;;;;;5085289;28;20207;-61
2023/03/25 14:37:26;;;;;;;0.63;0.25;;;;;;;;;;5088787;28;20210;-60
2023/03/25 14:39:53;;;;;;;0.70;0.20;;;;;;;;;;5089078;28;20206;-59
2023/03/25 14:42:28;;;;;;;0.65;0.30;;;;;;;;;;5067158;28;20337;-59
2023/03/25 14:45:19;;;;;;;0.30;0.30;;;;;;;;;;5078379;28;20237;-61
2023/03/25 14:47:54;;;;;;;0.65;0.40;;;;;;;;;;5091937;28;20241;-61
2023/03/25 14:50:32;;;;;;;1.20;0.43;;;;;;;;;;5088261;28;20771;-61
2023/03/25 14:53:01;;;;;;;0.45;0.25;;;;;;;;;;5088519;28;20210;-61
2023/03/25 14:55:29;;;;;;;1.10;0.10;;;;;;;;;;5088338;28;20206;-61
2023/03/25 14:57:58;;;;;;;2.50;0.60;;;;;;;;;;5088109;28;20210;-62
2023/03/25 15:00:28;;;;;;;0.88;0.32;;;;;;;;;;5088420;28;20206;-62